createdAt,value
2019-03-24T00:12:53.263Z,43.37
2019-03-24T00:15:26.218Z,38.70
2019-03-24T00:17:51.943Z,38.07
2019-03-24T00:20:20.405Z,40.53
2019-03-24T00:23:08.258Z,43.30
2019-03-24T00:25:36.742Z,40.37
2019-03-24T00:28:24.550Z,39.67
2019-03-24T00:30:53.012Z,41.13
2019-03-24T00:33:21.476Z,45.17
2019-03-24T00:38:23.598Z,42.47
2019-03-24T00:40:52.070Z,41.37
2019-03-24T00:43:39.959Z,43.30
2019-03-24T00:46:08.437Z,43.40
2019-03-24T00:48:36.904Z,42.17
2019-03-24T00:53:58.787Z,35.13
2019-03-24T00:59:20.405Z,35.03
2019-03-24T01:01:48.937Z,37.93
2019-03-24T01:05:15.268Z,38.93
2019-03-24T01:08:03.313Z,35.77
2019-03-24T01:10:31.880Z,36.50
2019-03-24T01:13:00.437Z,37.83
2019-03-24T01:15:28.899Z,36.60
2019-03-24T01:18:16.739Z,37.23
2019-03-24T01:20:45.200Z,42.27
2019-03-24T01:23:33.089Z,35.50
2019-03-24T01:26:01.556Z,37.80
2019-03-24T01:28:30.012Z,39.13
2019-03-24T01:31:17.731Z,38.27
2019-03-24T01:33:46.206Z,40.73
2019-03-24T01:36:14.676Z,37.10
2019-03-24T01:38:43.170Z,41.23
2019-03-24T01:41:30.823Z,40.30
2019-03-24T01:46:32.947Z,37.97
2019-03-24T01:49:01.419Z,39.20
2019-03-24T01:54:03.495Z,38.00
2019-03-24T01:56:31.962Z,40.43
2019-03-24T01:59:00.459Z,41.47
2019-03-24T02:01:28.993Z,41.03
2019-03-24T02:04:16.698Z,40.73
2019-03-24T02:06:45.175Z,40.00
2019-03-24T02:09:13.641Z,42.47
2019-03-24T02:11:42.150Z,39.70
2019-03-24T02:14:10.613Z,41.23
2019-03-24T02:16:59.315Z,38.40
2019-03-24T02:19:28.539Z,41.03
2019-03-24T02:21:56.998Z,39.83
2019-03-24T02:24:44.888Z,36.97
2019-03-24T02:27:32.591Z,37.37
2019-03-24T02:30:01.106Z,38.70
2019-03-24T02:32:48.899Z,40.97
2019-03-24T02:35:17.409Z,38.27
2019-03-24T02:38:05.185Z,35.57
2019-03-24T02:40:52.879Z,39.47
2019-03-24T02:43:21.344Z,37.43
2019-03-24T02:46:23.182Z,37.60
2019-03-24T02:48:39.373Z,40.27
2019-03-24T02:51:07.837Z,43.80
2019-03-24T02:53:55.524Z,37.57
2019-03-24T02:56:43.261Z,35.23
2019-03-24T02:59:11.758Z,36.60
2019-03-24T03:01:40.230Z,35.27
2019-03-24T03:04:08.682Z,39.57
2019-03-24T03:09:11.583Z,37.97
2019-03-24T03:14:33.854Z,38.20
2019-03-24T03:17:21.692Z,39.17
2019-03-24T03:19:50.164Z,35.87
2019-03-24T03:22:20.364Z,39.70
2019-03-24T03:25:08.115Z,38.50
2019-03-24T03:28:16.490Z,36.90
2019-03-24T03:33:38.696Z,37.00
2019-03-24T03:36:07.187Z,38.97
2019-03-24T03:38:35.654Z,38.97
2019-03-24T03:41:23.346Z,38.90
2019-03-24T03:43:51.806Z,39.30
2019-03-24T03:46:20.279Z,40.37
2019-03-24T03:48:48.776Z,39.00
2019-03-24T03:51:17.251Z,39.60
2019-03-24T03:53:45.709Z,39.77
2019-03-24T03:56:14.218Z,38.50
2019-03-24T03:58:42.686Z,37.93
2019-03-24T04:04:25.491Z,38.77
2019-03-24T04:06:53.953Z,37.73
2019-03-24T04:09:22.413Z,41.57
2019-03-24T04:12:10.041Z,37.07
2019-03-24T04:20:21.076Z,37.27
2019-03-24T04:22:49.529Z,39.47
2019-03-24T04:25:17.995Z,38.40
2019-03-24T04:27:46.459Z,38.90
2019-03-24T04:30:54.976Z,37.57
2019-03-24T04:33:23.442Z,38.47
2019-03-24T04:35:51.894Z,38.30
2019-03-24T04:40:54.306Z,37.57
2019-03-24T04:43:22.846Z,38.63
2019-03-24T04:48:45.005Z,36.37
2019-03-24T04:51:13.509Z,38.80
2019-03-24T04:53:42.026Z,38.80
2019-03-24T04:56:10.499Z,35.40
2019-03-24T04:58:38.992Z,37.67
2019-03-24T05:01:07.562Z,36.67
2019-03-24T05:03:35.996Z,34.53
2019-03-24T05:06:44.424Z,38.97
2019-03-24T05:09:54.468Z,39.07
2019-03-24T05:12:23.019Z,37.87
2019-03-24T05:15:31.392Z,41.30
2019-03-24T05:17:59.886Z,38.77
2019-03-24T05:20:28.348Z,40.90
2019-03-24T05:22:56.814Z,40.90
2019-03-24T05:25:25.382Z,41.80
2019-03-24T05:28:13.038Z,40.67
2019-03-24T05:33:15.138Z,37.40
2019-03-24T05:35:43.600Z,38.83
2019-03-24T05:40:45.660Z,37.27
2019-03-24T05:43:14.122Z,33.30
2019-03-24T05:48:17.238Z,34.77
2019-03-24T05:53:19.535Z,38.20
2019-03-24T05:58:21.971Z,36.40
2019-03-24T06:00:50.500Z,38.17
2019-03-24T06:05:52.948Z,34.83
2019-03-24T06:08:21.418Z,36.20
2019-03-24T06:10:49.917Z,39.10
2019-03-24T06:13:18.365Z,38.33
2019-03-24T06:15:46.833Z,38.27
2019-03-24T06:18:15.349Z,37.20
2019-03-24T06:20:43.809Z,37.70
2019-03-24T06:25:59.816Z,39.23
2019-03-24T06:28:28.277Z,39.00
2019-03-24T06:30:56.738Z,42.27
2019-03-24T06:35:59.654Z,40.57
2019-03-24T06:38:28.123Z,39.20
2019-03-24T06:40:56.650Z,40.27
2019-03-24T06:43:25.109Z,42.37
2019-03-24T06:45:53.574Z,41.00
2019-03-24T06:50:56.001Z,43.00
2019-03-24T06:53:43.858Z,44.57
2019-03-24T06:56:12.320Z,43.73
2019-03-24T06:58:40.781Z,43.43
2019-03-24T07:01:09.284Z,42.50
2019-03-24T07:03:37.741Z,42.20
2019-03-24T07:06:06.346Z,44.30
2019-03-24T07:08:34.990Z,44.90
2019-03-24T07:11:08.373Z,43.50
2019-03-24T07:13:33.643Z,44.50
2019-03-24T07:16:02.353Z,42.40
2019-03-24T07:18:30.844Z,44.03
2019-03-24T07:20:59.291Z,42.60
2019-03-24T07:23:27.788Z,40.03
2019-03-24T07:25:56.252Z,42.77
2019-03-24T07:28:25.040Z,45.80
2019-03-24T07:30:53.656Z,44.20
2019-03-24T07:33:25.157Z,42.80
2019-03-24T07:35:53.632Z,42.73
2019-03-24T07:38:22.500Z,41.30
2019-03-24T07:40:50.961Z,41.60
2019-03-24T07:43:19.421Z,40.80
2019-03-24T07:45:47.929Z,43.27
2019-03-24T07:48:19.252Z,41.97
2019-03-24T07:50:46.916Z,43.37
2019-03-24T07:53:15.418Z,41.73
2019-03-24T07:55:43.959Z,41.73
2019-03-24T07:58:12.490Z,41.80
2019-03-24T08:00:41.123Z,41.83
2019-03-24T08:03:09.582Z,44.00
2019-03-24T08:05:38.035Z,41.20
2019-03-24T08:08:06.566Z,39.87
2019-03-24T08:10:35.029Z,41.40
2019-03-24T08:13:03.564Z,42.63
2019-03-24T08:15:32.281Z,42.87
2019-03-24T08:18:00.736Z,42.20
2019-03-24T08:20:29.224Z,41.03
2019-03-24T08:22:57.859Z,41.93
2019-03-24T08:25:26.367Z,42.23
2019-03-24T08:27:54.848Z,43.70
2019-03-24T08:30:29.133Z,40.80
2019-03-24T08:32:57.590Z,42.60
2019-03-24T08:35:26.075Z,40.70
2019-03-24T08:37:54.688Z,39.87
2019-03-24T08:40:23.149Z,39.40
2019-03-24T08:42:51.610Z,38.53
2019-03-24T08:45:27.913Z,39.87
2019-03-24T08:47:57.914Z,41.60
2019-03-24T08:50:26.744Z,40.77
2019-03-24T08:52:55.478Z,40.50
2019-03-24T08:55:24.076Z,41.57
2019-03-24T08:57:52.604Z,39.57
2019-03-24T09:00:30.215Z,38.90
2019-03-24T09:02:51.464Z,38.50
2019-03-24T09:05:19.992Z,36.80
2019-03-24T09:07:48.633Z,34.63
2019-03-24T09:10:17.307Z,37.97
2019-03-24T09:12:45.792Z,37.60
2019-03-24T09:15:14.831Z,36.43
2019-03-24T09:17:43.523Z,35.90
2019-03-24T09:20:12.551Z,37.00
2019-03-24T09:22:41.556Z,35.80
2019-03-24T09:25:10.358Z,34.20
2019-03-24T09:27:38.971Z,36.10
2019-03-24T09:30:19.173Z,34.00
2019-03-24T09:32:47.650Z,36.40
2019-03-24T09:35:16.115Z,32.93
2019-03-24T09:37:44.749Z,33.70
2019-03-24T09:40:18.542Z,34.90
2019-03-24T09:42:46.490Z,33.07
2019-03-24T09:45:15.221Z,36.30
2019-03-24T09:47:43.684Z,31.80
2019-03-24T09:50:12.332Z,33.57
2019-03-24T09:52:40.841Z,31.93
2019-03-24T09:55:09.508Z,30.47
2019-03-24T09:57:37.973Z,30.83
2019-03-24T10:00:06.813Z,31.23
2019-03-24T10:02:35.305Z,30.57
2019-03-24T10:05:04.139Z,30.90
2019-03-24T10:07:32.652Z,29.00
2019-03-24T10:10:01.118Z,27.17
2019-03-24T10:12:29.656Z,29.40
2019-03-24T10:14:58.154Z,30.83
2019-03-24T10:17:26.620Z,29.67
2019-03-24T10:19:55.118Z,30.37
2019-03-24T10:22:23.693Z,32.30
2019-03-24T10:24:52.157Z,31.97
2019-03-24T10:27:20.629Z,28.70
2019-03-24T10:29:49.292Z,28.93
2019-03-24T10:32:17.780Z,29.73
2019-03-24T10:34:46.257Z,28.37
2019-03-24T10:37:14.928Z,28.77
2019-03-24T10:39:43.391Z,30.47
2019-03-24T10:42:11.856Z,30.30
2019-03-24T10:44:40.494Z,29.70
2019-03-24T10:47:09.104Z,27.87
2019-03-24T10:49:37.634Z,27.73
2019-03-24T10:52:06.339Z,28.97
2019-03-24T10:54:34.824Z,28.60
2019-03-24T10:57:05.357Z,29.83
2019-03-24T10:59:33.522Z,29.93
2019-03-24T11:02:02.078Z,28.90
2019-03-24T11:04:30.614Z,30.23
2019-03-24T11:06:59.202Z,29.00
2019-03-24T11:09:27.673Z,30.17
2019-03-24T11:11:56.138Z,28.70
2019-03-24T11:14:24.664Z,29.27
2019-03-24T11:16:53.195Z,30.60
2019-03-24T11:19:21.652Z,30.30
2019-03-24T11:21:50.467Z,34.13
2019-03-24T11:24:18.944Z,33.47
2019-03-24T11:26:47.517Z,33.00
2019-03-24T11:29:16.351Z,32.50
2019-03-24T11:31:44.814Z,35.37
2019-03-24T11:34:13.298Z,35.20
2019-03-24T11:36:41.973Z,34.67
2019-03-24T11:39:10.516Z,30.83
2019-03-24T11:41:39.053Z,36.90
2019-03-24T11:44:07.544Z,37.27
2019-03-24T11:46:36.080Z,35.10
2019-03-24T11:49:04.685Z,33.70
2019-03-24T11:51:33.180Z,32.00
2019-03-24T11:54:01.661Z,33.20
2019-03-24T11:56:30.119Z,32.60
2019-03-24T11:58:58.849Z,30.90
2019-03-24T12:01:37.799Z,29.97
2019-03-24T12:03:57.697Z,33.87
2019-03-24T12:06:26.201Z,32.73
2019-03-24T12:08:54.734Z,31.80
2019-03-24T12:11:23.241Z,32.80
2019-03-24T12:13:52.058Z,31.07
2019-03-24T12:16:20.553Z,32.47
2019-03-24T12:18:49.075Z,30.73
2019-03-24T12:21:17.776Z,30.37
2019-03-24T12:23:46.327Z,30.50
2019-03-24T12:26:14.776Z,30.37
2019-03-24T12:28:43.303Z,28.90
2019-03-24T12:31:11.906Z,28.03
2019-03-24T12:33:40.377Z,26.37
2019-03-24T12:36:09.326Z,26.30
2019-03-24T12:38:37.879Z,26.00
2019-03-24T12:41:06.384Z,27.90
2019-03-24T12:43:35.308Z,26.07
2019-03-24T12:46:03.840Z,26.87
2019-03-24T12:48:32.306Z,27.13
2019-03-24T12:51:00.802Z,26.63
2019-03-24T12:53:29.300Z,23.03
2019-03-24T12:55:57.775Z,22.37
2019-03-24T12:58:26.278Z,23.97
2019-03-24T13:00:54.768Z,23.40
2019-03-24T13:03:42.450Z,24.03
2019-03-24T13:06:30.104Z,21.17
2019-03-24T13:11:32.209Z,23.20
2019-03-24T13:14:00.683Z,22.90
2019-03-24T13:16:29.188Z,21.20
2019-03-24T13:18:57.723Z,21.30
2019-03-24T13:21:26.187Z,22.90
2019-03-24T13:23:54.781Z,23.93
2019-03-24T13:26:23.241Z,24.73
2019-03-24T13:28:51.710Z,24.20
2019-03-24T13:31:20.557Z,24.00
2019-03-24T13:33:49.009Z,24.47
2019-03-24T13:36:17.474Z,23.77
2019-03-24T13:38:47.138Z,22.93
2019-03-24T13:41:15.673Z,24.23
2019-03-24T13:43:44.212Z,22.77
2019-03-24T13:46:13.077Z,21.30
2019-03-24T13:48:41.541Z,22.13
2019-03-24T13:51:10.006Z,23.93
2019-03-24T13:53:38.742Z,23.50
2019-03-24T13:56:07.381Z,23.80
2019-03-24T13:58:35.914Z,23.77
2019-03-24T14:01:06.427Z,24.63
2019-03-24T14:03:34.887Z,24.10
2019-03-24T14:06:03.419Z,21.67
2019-03-24T14:08:31.938Z,24.80
2019-03-24T14:11:00.404Z,23.60
2019-03-24T14:13:28.869Z,23.37
2019-03-24T14:15:57.549Z,24.00
2019-03-24T14:18:26.016Z,24.03
2019-03-24T14:20:54.545Z,23.90
2019-03-24T14:23:23.129Z,23.53
2019-03-24T14:25:51.662Z,24.30
2019-03-24T14:28:20.153Z,23.97
2019-03-24T14:30:49.778Z,24.47
2019-03-24T14:33:18.399Z,25.30
2019-03-24T14:35:46.918Z,24.60
2019-03-24T14:38:15.954Z,22.43
2019-03-24T14:40:44.432Z,21.93
2019-03-24T14:43:12.967Z,21.43
2019-03-24T14:45:41.850Z,21.37
2019-03-24T14:48:10.310Z,22.27
2019-03-24T14:50:38.915Z,20.67
2019-03-24T14:53:07.559Z,19.70
2019-03-24T14:55:36.087Z,20.03
2019-03-24T14:58:04.988Z,20.20
2019-03-24T15:00:37.824Z,18.40
2019-03-24T15:03:06.719Z,19.07
2019-03-24T15:05:35.437Z,17.80
2019-03-24T15:08:04.808Z,17.60
2019-03-24T15:10:33.841Z,18.33
2019-03-24T15:13:02.305Z,17.90
2019-03-24T15:15:30.888Z,16.73
2019-03-24T15:17:59.418Z,16.87
2019-03-24T15:20:27.973Z,13.17
2019-03-24T15:22:56.505Z,13.10
2019-03-24T15:25:25.141Z,11.43
2019-03-24T15:27:53.608Z,11.30
2019-03-24T15:30:22.190Z,11.20
2019-03-24T15:32:50.653Z,12.07
2019-03-24T15:35:19.118Z,10.53
2019-03-24T15:37:48.357Z,10.20
2019-03-24T15:40:16.978Z,10.03
2019-03-24T15:42:45.476Z,9.67
2019-03-24T15:45:14.518Z,9.60
2019-03-24T15:47:43.072Z,7.60
2019-03-24T15:50:11.944Z,9.33
2019-03-24T15:52:40.532Z,9.83
2019-03-24T15:55:09.334Z,10.70
2019-03-24T15:57:37.798Z,10.97
2019-03-24T16:00:08.112Z,10.10
2019-03-24T16:02:36.597Z,9.53
2019-03-24T16:05:06.297Z,10.00
2019-03-24T16:07:35.145Z,9.80
2019-03-24T16:10:05.347Z,9.87
2019-03-24T16:12:33.808Z,11.40
2019-03-24T16:15:02.377Z,11.77
2019-03-24T16:17:30.910Z,12.30
2019-03-24T16:19:59.378Z,12.23
2019-03-24T16:22:27.925Z,14.30
2019-03-24T16:24:56.394Z,14.53
2019-03-24T16:27:24.859Z,14.47
2019-03-24T16:29:53.372Z,15.43
2019-03-24T16:32:21.833Z,15.43
2019-03-24T16:34:50.293Z,16.90
2019-03-24T16:37:18.972Z,17.40
2019-03-24T16:39:47.434Z,17.67
2019-03-24T16:42:15.966Z,18.10
2019-03-24T16:44:44.619Z,18.20
2019-03-24T16:47:13.083Z,18.17
2019-03-24T16:49:41.546Z,17.80
2019-03-24T16:52:10.165Z,19.57
2019-03-24T16:54:38.635Z,19.40
2019-03-24T16:57:07.166Z,22.50
2019-03-24T16:59:35.663Z,20.40
2019-03-24T17:02:04.202Z,20.07
2019-03-24T17:04:32.660Z,21.57
2019-03-24T17:07:01.356Z,22.47
2019-03-24T17:09:29.827Z,21.67
2019-03-24T17:11:58.293Z,21.67
2019-03-24T17:14:27.070Z,22.00
2019-03-24T17:16:55.541Z,23.93
2019-03-24T17:19:23.997Z,22.40
2019-03-24T17:21:52.505Z,24.33
2019-03-24T17:24:20.971Z,24.60
2019-03-24T17:26:49.512Z,22.53
2019-03-24T17:29:18.015Z,21.97
2019-03-24T17:31:46.478Z,21.80
2019-03-24T17:34:15.006Z,22.23
2019-03-24T17:36:43.766Z,20.87
2019-03-24T17:39:12.231Z,22.20
2019-03-24T17:41:40.693Z,23.67
2019-03-24T17:44:09.264Z,23.93
2019-03-24T17:46:37.720Z,23.70
2019-03-24T17:49:06.255Z,22.00
2019-03-24T17:51:34.819Z,21.00
2019-03-24T17:54:03.289Z,23.40
2019-03-24T17:56:31.753Z,22.00
2019-03-24T17:59:00.287Z,21.90
2019-03-24T18:01:28.733Z,21.00
2019-03-24T18:03:57.201Z,21.30
2019-03-24T18:06:25.704Z,21.33
2019-03-24T18:08:54.263Z,21.57
2019-03-24T18:11:22.734Z,20.30
2019-03-24T18:13:51.294Z,23.33
2019-03-24T18:16:19.841Z,22.37
2019-03-24T18:18:48.566Z,20.70
2019-03-24T18:21:17.066Z,22.60
2019-03-24T18:23:45.530Z,23.27
2019-03-24T18:26:14.030Z,20.10
2019-03-24T18:28:42.549Z,22.40
2019-03-24T18:31:11.087Z,22.13
2019-03-24T18:33:39.550Z,21.53
2019-03-24T18:36:08.230Z,17.90
2019-03-24T18:38:36.689Z,19.60
2019-03-24T18:41:05.389Z,20.63
2019-03-24T18:43:33.949Z,19.43
2019-03-24T18:46:02.488Z,20.77
2019-03-24T18:48:30.952Z,20.00
2019-03-24T18:50:59.440Z,20.17
2019-03-24T18:53:27.902Z,19.60
2019-03-24T18:55:56.462Z,22.33
2019-03-24T18:58:25.052Z,20.20
2019-03-24T19:00:53.514Z,22.87
2019-03-24T19:03:21.978Z,20.90
2019-03-24T19:05:50.499Z,18.60
2019-03-24T19:08:18.952Z,18.23
2019-03-24T19:10:47.412Z,17.13
2019-03-24T19:13:16.271Z,16.90
2019-03-24T19:15:44.775Z,17.90
2019-03-24T19:18:13.238Z,16.03
2019-03-24T19:20:41.824Z,15.33
2019-03-24T19:23:10.299Z,12.60
2019-03-24T19:25:38.762Z,13.77
2019-03-24T19:28:07.359Z,13.00
2019-03-24T19:30:38.325Z,11.67
2019-03-24T19:33:07.058Z,13.03
2019-03-24T19:35:35.545Z,10.10
2019-03-24T19:38:04.338Z,9.00
2019-03-24T19:40:33.546Z,8.60
2019-03-24T19:43:02.061Z,9.10
2019-03-24T19:45:30.509Z,7.90
2019-03-24T19:47:58.977Z,8.30
2019-03-24T19:50:27.590Z,10.77
2019-03-24T19:52:56.122Z,12.30
2019-03-24T19:55:24.582Z,10.90
2019-03-24T19:57:53.078Z,12.47
2019-03-24T20:00:21.541Z,10.60
2019-03-24T20:02:50.073Z,10.47
2019-03-24T20:05:18.567Z,9.80
2019-03-24T20:07:48.137Z,7.70
2019-03-24T20:10:17.123Z,8.97
2019-03-24T20:12:45.851Z,8.80
2019-03-24T20:15:14.444Z,9.37
2019-03-24T20:17:42.988Z,7.43
2019-03-24T20:20:12.320Z,8.30
2019-03-24T20:22:41.013Z,7.80
2019-03-24T20:25:09.704Z,8.73
2019-03-24T20:27:38.271Z,10.30
2019-03-24T20:30:09.813Z,12.03
2019-03-24T20:32:38.357Z,14.20
2019-03-24T20:35:07.587Z,11.83
2019-03-24T20:37:36.184Z,9.60
2019-03-24T20:40:06.303Z,8.67
2019-03-24T20:42:34.858Z,9.77
2019-03-24T20:45:03.661Z,8.50
2019-03-24T20:47:32.119Z,10.23
2019-03-24T20:50:00.617Z,9.30
2019-03-24T20:52:29.071Z,9.60
2019-03-24T20:54:57.540Z,9.60
2019-03-24T20:57:26.032Z,9.37
2019-03-24T20:59:54.487Z,8.73
2019-03-24T21:02:22.947Z,8.40
2019-03-24T21:04:51.506Z,7.50
2019-03-24T21:07:19.970Z,9.93
2019-03-24T21:09:48.429Z,8.97
2019-03-24T21:12:16.923Z,7.70
2019-03-24T21:14:45.414Z,7.43
2019-03-24T21:17:13.856Z,5.70
2019-03-24T21:19:42.415Z,7.17
2019-03-24T21:22:10.870Z,6.50
2019-03-24T21:24:39.343Z,6.53
2019-03-24T21:27:07.998Z,5.80
2019-03-24T21:29:36.472Z,5.40
2019-03-24T21:32:04.992Z,5.77
2019-03-24T21:34:33.501Z,5.00
2019-03-24T21:37:01.955Z,6.40
2019-03-24T21:39:30.432Z,6.70
2019-03-24T21:41:58.922Z,7.37
2019-03-24T21:44:27.388Z,6.53
2019-03-24T21:46:55.863Z,6.73
2019-03-24T21:49:24.706Z,7.50
2019-03-24T21:51:53.230Z,6.30
2019-03-24T21:54:21.707Z,6.90
2019-03-24T21:56:50.291Z,7.07
2019-03-24T21:59:18.741Z,7.33
2019-03-24T22:01:47.197Z,8.60
2019-03-24T22:04:15.808Z,6.73
2019-03-24T22:06:44.272Z,6.20
2019-03-24T22:09:12.714Z,6.83
2019-03-24T22:11:41.266Z,5.67
2019-03-24T22:14:09.715Z,5.80
2019-03-24T22:16:38.173Z,4.30
2019-03-24T22:19:06.687Z,4.70
2019-03-24T22:21:35.141Z,5.10
2019-03-24T22:24:03.673Z,5.00
2019-03-24T22:26:32.340Z,5.07
2019-03-24T22:29:00.795Z,5.17
2019-03-24T22:31:29.264Z,4.33
2019-03-24T22:33:57.871Z,4.63
2019-03-24T22:36:26.322Z,5.03
2019-03-24T22:38:54.780Z,3.70
2019-03-24T22:41:23.297Z,4.43
2019-03-24T22:43:51.785Z,6.07
2019-03-24T22:46:20.244Z,5.53
2019-03-24T22:48:48.738Z,4.10
2019-03-24T22:51:17.182Z,4.00
2019-03-24T22:53:45.644Z,3.83
2019-03-24T22:56:14.203Z,4.63
2019-03-24T22:58:42.719Z,4.47
2019-03-24T23:01:11.411Z,4.00
2019-03-24T23:03:39.967Z,3.90
2019-03-24T23:06:08.487Z,3.43
2019-03-24T23:08:36.933Z,3.77
2019-03-24T23:11:05.629Z,4.90
2019-03-24T23:13:34.150Z,4.10
2019-03-24T23:16:02.607Z,4.23
2019-03-24T23:18:31.261Z,4.33
2019-03-24T23:20:59.716Z,4.57
2019-03-24T23:23:28.175Z,3.80
2019-03-24T23:25:56.665Z,3.67
2019-03-24T23:28:25.147Z,3.33
2019-03-24T23:30:53.598Z,4.13
2019-03-24T23:33:22.154Z,3.93
2019-03-24T23:35:50.538Z,4.03
2019-03-24T23:38:18.986Z,3.60
2019-03-24T23:40:47.480Z,5.37
2019-03-24T23:43:15.930Z,3.00
2019-03-24T23:45:44.384Z,4.53
2019-03-24T23:48:12.870Z,4.10
2019-03-24T23:50:41.327Z,4.67
2019-03-24T23:53:09.784Z,4.30
2019-03-24T23:55:38.275Z,5.03
2019-03-24T23:58:06.730Z,3.50
